Terminal Aerodrome Forecast
Issued by NWS

Home | Current Version | Previous Version | Text Only | Print | Product List | Glossary On
Versions: 1 2 3 4 5 6 7 8 9 10 11 12 13 14 15 16 17 18 19 20 21 22 23 24 25 26
000
FTUS41 KBOX 301447 AAA
TAFHYA
TAF AMD
KHYA 301447Z 3015/3112 15006KT 6SM -RA BR BKN005 OVC015
     FM301800 19004KT 2SM -RA OVC005
     FM302000 29007KT 2SM -RA OVC005
     FM302200 33009KT 2SM -SNRA OVC008
     FM302300 32010G18KT P6SM OVC008
     FM310100 32014G25KT P6SM OVC015=

USA.gov is the U.S. government's official web portal to all federal, state and local government web resources and services.